createdAt,value
2022-11-10T00:00:56.915Z,78.6
2022-11-10T00:02:00.339Z,78.5
2022-11-10T00:03:03.049Z,78.7
2022-11-10T00:04:05.905Z,78.8
2022-11-10T00:05:09.830Z,79
2022-11-10T00:06:12.907Z,78.9
2022-11-10T00:07:16.445Z,79
2022-11-10T00:08:19.394Z,79.2
2022-11-10T00:09:22.605Z,79.2
2022-11-10T00:10:26.062Z,79.4
2022-11-10T00:11:28.932Z,79.6
2022-11-10T00:12:32.098Z,79.6
2022-11-10T00:13:35.284Z,79.5
2022-11-10T00:14:38.029Z,79.7
2022-11-10T00:15:41.515Z,79.7
2022-11-10T00:16:45.017Z,79.5
2022-11-10T00:17:47.907Z,79.5
2022-11-10T00:18:51.913Z,79.7
2022-11-10T00:19:54.654Z,79.4
2022-11-10T00:20:58.167Z,79.8
2022-11-10T00:22:01.278Z,79.6
2022-11-10T00:23:04.706Z,79.8
2022-11-10T00:24:07.409Z,80.3
2022-11-10T00:25:11.121Z,80.2
2022-11-10T00:26:13.987Z,80
2022-11-10T00:27:17.406Z,79.5
2022-11-10T00:28:20.652Z,79.4
2022-11-10T00:29:23.552Z,79.3
2022-11-10T00:30:26.989Z,79
2022-11-10T00:31:29.972Z,79
2022-11-10T00:32:32.931Z,78.9
2022-11-10T00:33:36.011Z,79
2022-11-10T00:34:39.356Z,78.8
2022-11-10T00:35:42.555Z,78.7
2022-11-10T00:36:46.293Z,78.5
2022-11-10T00:37:49.647Z,78.7
2022-11-10T00:38:52.440Z,78.6
2022-11-10T00:39:55.063Z,78.6
2022-11-10T00:40:57.980Z,78.5
2022-11-10T00:42:01.244Z,78.5
2022-11-10T00:43:04.038Z,78.6
2022-11-10T00:44:07.486Z,78.5
2022-11-10T00:45:10.207Z,78.5
2022-11-10T00:46:12.369Z,78.5
2022-11-10T00:47:15.245Z,78.5
2022-11-10T00:48:18.044Z,78.6
2022-11-10T00:49:20.292Z,78.8
2022-11-10T00:50:23.167Z,78.9
2022-11-10T00:51:26.822Z,79
2022-11-10T00:52:30.070Z,79.1
2022-11-10T00:53:33.838Z,79
2022-11-10T00:54:36.706Z,79
2022-11-10T00:55:39.792Z,79
2022-11-10T00:56:42.966Z,79.1
2022-11-10T00:57:45.759Z,79.2
2022-11-10T00:58:48.565Z,79.1
2022-11-10T00:59:51.705Z,79.1
2022-11-10T01:00:55.606Z,79.2
2022-11-10T01:01:58.508Z,79.2
2022-11-10T01:03:02.187Z,79.2
2022-11-10T01:04:04.758Z,79.2
2022-11-10T01:05:07.019Z,79.2
2022-11-10T01:06:10.744Z,79.3
2022-11-10T01:07:13.995Z,79.4
2022-11-10T01:08:17.545Z,79.5
2022-11-10T01:09:20.963Z,79.7
2022-11-10T01:10:23.855Z,79.7
2022-11-10T01:11:27.294Z,79.8
2022-11-10T01:12:30.722Z,79.8
2022-11-10T01:13:33.862Z,79.9
2022-11-10T01:14:36.581Z,80
2022-11-10T01:15:39.395Z,79.9
2022-11-10T01:16:43.226Z,79.9
2022-11-10T01:17:46.228Z,79.8
2022-11-10T01:18:49.363Z,79.8
2022-11-10T01:19:52.262Z,79.8
2022-11-10T01:20:54.775Z,79.9
2022-11-10T01:21:57.936Z,79.7
2022-11-10T01:23:01.108Z,79.8
2022-11-10T01:24:04.577Z,79.9
2022-11-10T01:25:07.720Z,79.6
2022-11-10T01:26:11.187Z,79.5
2022-11-10T01:27:14.651Z,79.6
2022-11-10T01:28:17.749Z,79.8
2022-11-10T01:29:21.103Z,79.7
2022-11-10T01:30:24.807Z,79.7
2022-11-10T01:31:28.247Z,79.7
2022-11-10T01:32:32.314Z,79.8
2022-11-10T01:33:35.750Z,79.8
2022-11-10T01:34:39.176Z,79.7
2022-11-10T01:35:41.835Z,79.6
2022-11-10T01:36:44.721Z,79.5
2022-11-10T01:37:48.073Z,79.5
2022-11-10T01:38:51.098Z,79.4
2022-11-10T01:39:55.190Z,79.4
2022-11-10T01:40:58.442Z,79.6
2022-11-10T01:42:01.956Z,79.6
2022-11-10T01:43:04.487Z,79.5
2022-11-10T01:44:07.869Z,79.5
2022-11-10T01:45:10.696Z,79.6
2022-11-10T01:46:13.685Z,79.6
2022-11-10T01:47:16.394Z,79.6
2022-11-10T01:48:19.605Z,79.7
2022-11-10T01:49:22.676Z,79.7
2022-11-10T01:50:25.827Z,79.9
2022-11-10T01:51:28.899Z,80
2022-11-10T01:52:32.341Z,80.3
2022-11-10T01:53:35.051Z,80.4
2022-11-10T01:54:38.493Z,80.3
2022-11-10T01:55:41.198Z,80.2
2022-11-10T01:56:44.541Z,80.2
2022-11-10T01:57:47.975Z,80.3
2022-11-10T01:58:51.044Z,80.4
2022-11-10T01:59:54.741Z,80.4
2022-11-10T02:00:58.024Z,80.4
2022-11-10T02:02:00.839Z,80.6
2022-11-10T02:03:03.559Z,80.6
2022-11-10T02:04:06.395Z,80.7
2022-11-10T02:05:09.385Z,80.7
2022-11-10T02:06:13.102Z,80.6
2022-11-10T02:07:16.512Z,80.7
2022-11-10T02:08:19.623Z,80.9
2022-11-10T02:09:23.251Z,80.9
2022-11-10T02:10:26.159Z,80.8
2022-11-10T02:11:29.285Z,80.7
2022-11-10T02:12:31.253Z,80.6
2022-11-10T02:13:33.787Z,80.6
2022-11-10T02:14:37.134Z,80.6
2022-11-10T02:15:40.308Z,80.6
2022-11-10T02:16:43.665Z,80.7
2022-11-10T02:17:47.292Z,80.7
2022-11-10T02:18:50.674Z,80.6
2022-11-10T02:19:53.792Z,80.6
2022-11-10T02:20:57.139Z,80.7
2022-11-10T02:22:00.007Z,80.6
2022-11-10T02:23:03.084Z,80.6
2022-11-10T02:24:06.233Z,80.5
2022-11-10T02:25:09.041Z,80.6
2022-11-10T02:26:11.853Z,80.7
2022-11-10T02:27:15.242Z,80.6
2022-11-10T02:28:17.829Z,80.5
2022-11-10T02:29:20.827Z,80.5
2022-11-10T02:30:28.692Z,80.3
2022-11-10T02:31:31.781Z,80.6
2022-11-10T02:32:34.278Z,80.7
2022-11-10T02:33:36.981Z,80.7
2022-11-10T02:34:40.253Z,80.7
2022-11-10T02:35:43.360Z,80.7
2022-11-10T02:36:46.358Z,80.8
2022-11-10T02:37:49.506Z,80.8
2022-11-10T02:38:52.931Z,80.6
2022-11-10T02:39:55.745Z,80.6
2022-11-10T02:40:57.986Z,80.5
2022-11-10T02:42:00.821Z,80.5
2022-11-10T02:43:03.652Z,80.5
2022-11-10T02:44:06.089Z,80.4
2022-11-10T02:45:08.591Z,80.5
2022-11-10T02:46:11.090Z,80.4
2022-11-10T02:47:14.481Z,80.5
2022-11-10T02:48:17.194Z,80.6
2022-11-10T02:49:19.921Z,80.6
2022-11-10T02:50:23.377Z,80.5
2022-11-10T02:51:26.846Z,80.4
2022-11-10T02:52:29.454Z,80.4
2022-11-10T02:53:32.596Z,80.3
2022-11-10T02:54:36.319Z,80.5
2022-11-10T02:55:39.205Z,80.3
2022-11-10T02:56:42.739Z,80.3
2022-11-10T02:57:45.692Z,80.3
2022-11-10T02:58:48.641Z,80.2
2022-11-10T02:59:51.781Z,80
2022-11-10T03:00:54.575Z,79.9
2022-11-10T03:01:58.012Z,79.8
2022-11-10T03:03:01.791Z,79.9
2022-11-10T03:04:04.304Z,79.8
2022-11-10T03:05:07.479Z,79.7
2022-11-10T03:06:10.637Z,79.8
2022-11-10T03:07:13.769Z,79.8
2022-11-10T03:08:15.876Z,79.9
2022-11-10T03:09:19.078Z,79.8
2022-11-10T03:10:21.698Z,80
2022-11-10T03:11:33.448Z,80
2022-11-10T03:12:36.314Z,79.8
2022-11-10T03:14:03.556Z,79.9
2022-11-10T03:15:06.948Z,80
2022-11-10T03:16:09.466Z,80.1
2022-11-10T03:17:12.149Z,80.1
2022-11-10T03:18:15.881Z,79.9
2022-11-10T03:19:18.887Z,80
2022-11-10T03:20:21.549Z,80.1
2022-11-10T03:21:24.347Z,80.1
2022-11-10T03:22:27.537Z,80.1
2022-11-10T03:23:30.413Z,80.2
2022-11-10T03:24:33.277Z,80.2
2022-11-10T03:25:36.049Z,80.3
2022-11-10T03:26:39.135Z,80.3
2022-11-10T03:27:41.852Z,80.3
2022-11-10T03:28:45.373Z,80.3
2022-11-10T03:29:48.748Z,80.4
2022-11-10T03:30:52.401Z,80.5
2022-11-10T03:31:55.860Z,80.5
2022-11-10T03:32:58.383Z,80.6
2022-11-10T03:34:02.104Z,80.5
2022-11-10T03:35:05.560Z,80.4
2022-11-10T03:36:08.161Z,80.3
2022-11-10T03:37:11.539Z,80.4
2022-11-10T03:38:14.281Z,80.4
2022-11-10T03:39:17.387Z,80.4
2022-11-10T03:40:20.427Z,80.6
2022-11-10T03:41:23.291Z,80.7
2022-11-10T03:42:26.151Z,80.7
2022-11-10T03:43:28.864Z,80.7
2022-11-10T03:44:31.585Z,81
2022-11-10T03:45:35.253Z,81.1
2022-11-10T03:46:43.465Z,81
2022-11-10T03:47:54.850Z,81.2
2022-11-10T03:48:58.028Z,81.1
2022-11-10T03:50:01.132Z,81.1
2022-11-10T03:51:04.676Z,81.1
2022-11-10T03:52:07.117Z,81.1
2022-11-10T03:53:10.257Z,81.1
2022-11-10T03:54:14.036Z,81.1
2022-11-10T03:55:16.519Z,81
2022-11-10T03:56:19.597Z,81.1
2022-11-10T03:57:22.478Z,81.1
2022-11-10T03:58:25.190Z,81.2
2022-11-10T03:59:27.989Z,81.2
2022-11-10T04:00:31.355Z,81.2
2022-11-10T04:01:34.475Z,81.2
2022-11-10T04:02:37.860Z,81.2
2022-11-10T04:03:41.224Z,81.3
2022-11-10T04:04:44.572Z,81.4
2022-11-10T04:05:48.239Z,81.4
2022-11-10T04:06:51.004Z,81.3
2022-11-10T04:07:55.234Z,81.2
2022-11-10T04:08:57.945Z,81.2
2022-11-10T04:10:00.846Z,81.1
2022-11-10T04:11:03.840Z,81.2
2022-11-10T04:12:07.462Z,81.5
2022-11-10T04:13:10.552Z,81.4
2022-11-10T04:14:12.872Z,81.4
2022-11-10T04:15:16.344Z,81.3
2022-11-10T04:16:20.011Z,81.4
2022-11-10T04:17:23.475Z,81.4
2022-11-10T04:18:26.573Z,81.3
2022-11-10T04:19:30.212Z,81.3
2022-11-10T04:20:33.208Z,81.4
2022-11-10T04:21:36.689Z,81.4
2022-11-10T04:22:39.874Z,81.4
2022-11-10T04:23:42.325Z,81.3
2022-11-10T04:24:45.769Z,81.4
2022-11-10T04:25:49.081Z,81.3
2022-11-10T04:26:52.149Z,81.3
2022-11-10T04:27:55.303Z,81.3
2022-11-10T04:28:58.027Z,81.1
2022-11-10T04:30:01.288Z,81.1
2022-11-10T04:31:04.110Z,81.1
2022-11-10T04:32:06.636Z,81.2
2022-11-10T04:33:10.122Z,81.3
2022-11-10T04:34:12.663Z,81.4
2022-11-10T04:35:15.220Z,81.3
2022-11-10T04:36:18.018Z,81.2
2022-11-10T04:37:21.109Z,81.6
2022-11-10T04:38:23.991Z,81.6
2022-11-10T04:39:27.646Z,81.6
2022-11-10T04:40:30.595Z,81.5
2022-11-10T04:41:34.062Z,81.7
2022-11-10T04:42:36.567Z,81.7
2022-11-10T04:43:39.924Z,81.7
2022-11-10T04:44:42.786Z,81.8
2022-11-10T04:45:45.853Z,81.8
2022-11-10T04:46:48.925Z,81.7
2022-11-10T04:47:51.082Z,81.7
2022-11-10T04:48:54.477Z,81.7
2022-11-10T04:49:57.308Z,81.9
2022-11-10T04:51:00.483Z,81.9
2022-11-10T04:52:03.703Z,81.8
2022-11-10T04:53:07.257Z,82.2
2022-11-10T04:54:10.709Z,82.4
2022-11-10T04:55:14.459Z,82.4
2022-11-10T04:56:17.342Z,82.4
2022-11-10T04:57:20.345Z,82.2
2022-11-10T04:58:23.572Z,82.3
2022-11-10T04:59:26.739Z,82.5
2022-11-10T05:00:30.539Z,82.5
2022-11-10T05:01:33.989Z,82.5
2022-11-10T05:02:40.716Z,82.8
2022-11-10T05:03:44.371Z,82.8
2022-11-10T05:04:47.495Z,82.7
2022-11-10T05:05:50.946Z,82.9
2022-11-10T05:06:53.959Z,83
2022-11-10T05:07:57.407Z,82.9
2022-11-10T05:09:00.888Z,82.8
2022-11-10T05:10:04.218Z,82.7
2022-11-10T05:11:08.235Z,82.6
2022-11-10T05:12:11.037Z,82.4
2022-11-10T05:13:13.899Z,82.6
2022-11-10T05:14:16.689Z,82.7
2022-11-10T05:15:20.175Z,82.7
2022-11-10T05:16:23.351Z,82.6
2022-11-10T05:17:26.341Z,82.8
2022-11-10T05:18:29.219Z,82.7
2022-11-10T05:19:32.216Z,82.6
2022-11-10T05:20:34.839Z,82.5
2022-11-10T05:21:37.946Z,82.4
2022-11-10T05:22:49.299Z,82.5
2022-11-10T05:23:52.312Z,82.4
2022-11-10T05:24:55.748Z,82.5
2022-11-10T05:25:58.742Z,82.6
2022-11-10T05:27:02.463Z,82.7
2022-11-10T05:28:05.546Z,82.8
2022-11-10T05:29:08.848Z,82.8
2022-11-10T05:30:11.732Z,83
2022-11-10T05:31:15.183Z,83.4
2022-11-10T05:32:18.624Z,83.7
2022-11-10T05:33:23.862Z,83.8
2022-11-10T05:34:28.149Z,83.8
2022-11-10T05:35:30.958Z,83.6
2022-11-10T05:36:33.700Z,83.7
2022-11-10T05:37:37.165Z,83.7
2022-11-10T05:38:44.797Z,84
2022-11-10T05:39:47.941Z,84
2022-11-10T05:40:51.697Z,84.1
2022-11-10T05:41:54.136Z,84.1
2022-11-10T05:42:56.730Z,84.2
2022-11-10T05:43:59.630Z,84.2
2022-11-10T05:45:02.997Z,84
2022-11-10T05:46:06.084Z,83.9
2022-11-10T05:47:09.591Z,84.1
2022-11-10T05:48:12.385Z,84.2
2022-11-10T05:49:15.172Z,84.3
2022-11-10T05:50:17.968Z,84.3
2022-11-10T05:51:21.391Z,84.4
2022-11-10T05:52:24.224Z,84.5
2022-11-10T05:53:27.335Z,84.6
2022-11-10T05:54:30.789Z,84.5
2022-11-10T05:55:33.768Z,84.3
2022-11-10T05:56:36.311Z,84.2
2022-11-10T05:57:39.022Z,84.1
2022-11-10T05:58:41.831Z,84.2
2022-11-10T05:59:43.983Z,84.3
2022-11-10T06:00:46.857Z,84.4
2022-11-10T06:01:49.947Z,84.6
2022-11-10T06:02:53.004Z,84.6
2022-11-10T06:03:56.837Z,84.6
2022-11-10T06:04:59.166Z,84.7
2022-11-10T06:06:01.875Z,85
2022-11-10T06:07:04.940Z,85
2022-11-10T06:08:08.529Z,85
2022-11-10T06:09:11.965Z,85.1
2022-11-10T06:10:14.734Z,84.9
2022-11-10T06:11:17.787Z,85.1
2022-11-10T06:12:21.606Z,85
2022-11-10T06:13:26.327Z,84.9
2022-11-10T06:14:29.144Z,84.9
2022-11-10T06:15:32.581Z,85
2022-11-10T06:16:35.868Z,85
2022-11-10T06:17:38.394Z,84.9
2022-11-10T06:18:41.749Z,84.8
2022-11-10T06:19:43.704Z,84.8
2022-11-10T06:20:46.497Z,84.8
2022-11-10T06:21:49.656Z,84.8
2022-11-10T06:23:09.516Z,84.8
2022-11-10T06:24:12.627Z,84.8
2022-11-10T06:25:15.735Z,84.8
2022-11-10T06:26:18.483Z,85
2022-11-10T06:27:21.635Z,85.1
2022-11-10T06:28:25.688Z,85
2022-11-10T06:29:28.777Z,85.1
2022-11-10T06:30:31.773Z,85.2
2022-11-10T06:31:35.132Z,85.2
2022-11-10T06:32:38.015Z,85.3
2022-11-10T06:33:41.096Z,85.2
2022-11-10T06:34:43.629Z,85.2
2022-11-10T06:35:46.699Z,85.2
2022-11-10T06:36:50.417Z,85.3
2022-11-10T06:37:53.767Z,85.4
2022-11-10T06:38:56.279Z,85.3
2022-11-10T06:39:58.772Z,85.2
2022-11-10T06:41:02.509Z,85.2
2022-11-10T06:42:05.521Z,85.3
2022-11-10T06:43:08.051Z,85.4
2022-11-10T06:44:11.512Z,85.4
2022-11-10T06:45:14.390Z,85.5
2022-11-10T06:46:17.220Z,85.5
2022-11-10T06:47:19.822Z,85.5
2022-11-10T06:48:23.491Z,85.5
2022-11-10T06:49:26.294Z,85.4
2022-11-10T06:50:29.149Z,85.3
2022-11-10T06:51:32.017Z,85.2
2022-11-10T06:52:35.277Z,85
2022-11-10T06:53:38.064Z,85
2022-11-10T06:54:40.509Z,84.9
2022-11-10T06:55:42.979Z,84.9
2022-11-10T06:56:46.461Z,84.8
2022-11-10T06:57:49.549Z,84.9
2022-11-10T06:58:52.157Z,85
2022-11-10T06:59:55.293Z,84.9
2022-11-10T07:00:58.629Z,84.8
2022-11-10T07:02:01.738Z,85
2022-11-10T07:03:04.806Z,85.1
2022-11-10T07:04:21.937Z,85.1
2022-11-10T07:05:24.654Z,85.3
2022-11-10T07:06:27.915Z,85.4
2022-11-10T07:07:31.659Z,85.3
2022-11-10T07:08:34.203Z,85.2
2022-11-10T07:09:36.459Z,85.2
2022-11-10T07:10:39.049Z,85.1
2022-11-10T07:11:41.863Z,85.1
2022-11-10T07:12:45.504Z,85.3
2022-11-10T07:13:48.108Z,85.2
2022-11-10T07:14:50.894Z,85.2
2022-11-10T07:15:53.790Z,85
2022-11-10T07:16:56.594Z,84.8
2022-11-10T07:17:59.476Z,84.7
2022-11-10T07:19:01.922Z,84.8
2022-11-10T07:20:05.325Z,84.8
2022-11-10T07:21:07.852Z,84.8
2022-11-10T07:22:12.628Z,84.8
2022-11-10T07:23:15.625Z,84.8
2022-11-10T07:24:18.618Z,84.7
2022-11-10T07:25:22.025Z,84.6
2022-11-10T07:26:25.564Z,84.9
2022-11-10T07:27:28.655Z,85
2022-11-10T07:28:32.207Z,85.1
2022-11-10T07:29:34.975Z,85
2022-11-10T07:30:38.067Z,84.8
2022-11-10T07:31:41.505Z,84.6
2022-11-10T07:32:44.572Z,84.7
2022-11-10T07:33:55.673Z,84.7
2022-11-10T07:34:58.935Z,84.7
2022-11-10T07:36:01.503Z,84.6
2022-11-10T07:37:04.594Z,84.6
2022-11-10T07:38:08.043Z,84.5
2022-11-10T07:39:10.920Z,84.6
2022-11-10T07:40:13.802Z,84.6
2022-11-10T07:41:16.674Z,84.6
2022-11-10T07:42:19.486Z,84.7
2022-11-10T07:43:24.833Z,84.6
2022-11-10T07:44:28.474Z,84.5
2022-11-10T07:45:32.125Z,84.5
2022-11-10T07:46:35.836Z,84.5
2022-11-10T07:47:39.218Z,84.4
2022-11-10T07:48:42.946Z,84.5
2022-11-10T07:49:46.648Z,84.5
2022-11-10T07:50:49.743Z,84.4
2022-11-10T07:51:52.850Z,84.3
2022-11-10T07:52:55.742Z,84.3
2022-11-10T07:53:59.342Z,84.5
2022-11-10T07:55:02.139Z,84.3
2022-11-10T07:56:05.879Z,84.2
2022-11-10T07:57:09.044Z,84.4
2022-11-10T07:58:12.147Z,84.3
2022-11-10T07:59:15.591Z,84.2
2022-11-10T08:00:18.981Z,84.2
2022-11-10T08:01:22.199Z,84.1
2022-11-10T08:02:25.757Z,84
2022-11-10T08:03:28.996Z,84.1
2022-11-10T08:04:31.234Z,83.9
2022-11-10T08:05:34.092Z,83.7
2022-11-10T08:06:38.820Z,83.5
2022-11-10T08:07:42.927Z,83.3
2022-11-10T08:08:46.952Z,83.1
2022-11-10T08:09:50.036Z,83
2022-11-10T08:10:52.566Z,83
2022-11-10T08:11:56.370Z,83.1
2022-11-10T08:12:59.712Z,82.9
2022-11-10T08:14:03.435Z,82.9
2022-11-10T08:15:06.348Z,82.7
2022-11-10T08:16:09.728Z,82.5
2022-11-10T08:17:13.074Z,82.2
2022-11-10T08:18:16.695Z,82.2
2022-11-10T08:19:19.846Z,82.2
2022-11-10T08:20:22.444Z,81.8
2022-11-10T08:21:25.862Z,81.7
2022-11-10T08:22:29.046Z,81.7
2022-11-10T08:23:32.457Z,81.7
2022-11-10T08:24:35.912Z,81.8
2022-11-10T08:25:39.387Z,82
2022-11-10T08:26:41.814Z,81.8
2022-11-10T08:27:44.682Z,81.8
2022-11-10T08:28:47.768Z,81.9
2022-11-10T08:29:51.148Z,82
2022-11-10T08:30:53.966Z,82
2022-11-10T08:31:58.039Z,81.9
2022-11-10T08:33:00.855Z,81.9
2022-11-10T08:34:03.919Z,81.9
2022-11-10T08:35:07.456Z,82.1
2022-11-10T08:36:10.460Z,82.3
2022-11-10T08:37:13.861Z,82.3
2022-11-10T08:38:17.336Z,82.4
2022-11-10T08:39:40.727Z,82.3
2022-11-10T08:40:44.073Z,82.2
2022-11-10T08:41:47.502Z,82.1
2022-11-10T08:42:50.473Z,82.1
2022-11-10T08:43:54.099Z,82.2
2022-11-10T08:44:56.348Z,82.1
2022-11-10T08:45:59.378Z,82
2022-11-10T08:47:02.839Z,82.1
2022-11-10T08:48:05.731Z,82
2022-11-10T08:49:08.898Z,81.8
2022-11-10T08:50:12.192Z,81.7
2022-11-10T08:51:14.923Z,81.6
2022-11-10T08:52:17.790Z,81.4
2022-11-10T08:53:22.168Z,81.3
2022-11-10T08:54:26.750Z,81.2
2022-11-10T08:55:29.950Z,81.2
2022-11-10T08:56:33.676Z,81.3
2022-11-10T08:57:37.516Z,81.5
2022-11-10T08:58:54.520Z,81.1
2022-11-10T08:59:57.890Z,81.4
2022-11-10T09:01:00.699Z,81.4
2022-11-10T09:02:04.476Z,81.3
2022-11-10T09:03:08.127Z,81.4
2022-11-10T09:04:11.928Z,81.3
2022-11-10T09:05:15.270Z,81.4
2022-11-10T09:06:17.784Z,81.4
2022-11-10T09:07:20.690Z,81.3
2022-11-10T09:08:23.869Z,81.2
2022-11-10T09:09:26.969Z,81.3
2022-11-10T09:10:30.118Z,81.3
2022-11-10T09:11:32.634Z,81.2
2022-11-10T09:12:36.548Z,81.2
2022-11-10T09:13:39.966Z,81.3
2022-11-10T09:14:42.692Z,81.3
2022-11-10T09:15:46.315Z,81.3
2022-11-10T09:16:49.774Z,81.3
2022-11-10T09:17:52.950Z,81.2
2022-11-10T09:18:56.694Z,81.3
2022-11-10T09:20:00.031Z,81.1
2022-11-10T09:21:04.053Z,81
2022-11-10T09:22:06.323Z,80.8
2022-11-10T09:23:09.121Z,80.8
2022-11-10T09:24:11.999Z,80.8
2022-11-10T09:25:14.884Z,81
2022-11-10T09:26:17.875Z,80.7
2022-11-10T09:27:20.972Z,81
2022-11-10T09:28:24.135Z,80.8
2022-11-10T09:29:26.928Z,80.7
2022-11-10T09:30:30.495Z,80.9
2022-11-10T09:31:33.368Z,80.9
2022-11-10T09:32:36.835Z,81.1
2022-11-10T09:33:40.029Z,81.2
2022-11-10T09:34:51.859Z,81.2
2022-11-10T09:35:56.248Z,81.2
2022-11-10T09:36:59.699Z,81.3
2022-11-10T09:38:03.153Z,81.5
2022-11-10T09:39:06.144Z,81.3
2022-11-10T09:40:14.316Z,81.4
2022-11-10T09:41:17.696Z,81.3
2022-11-10T09:42:21.327Z,81.1
2022-11-10T09:43:25.593Z,81
2022-11-10T09:44:29.049Z,81
2022-11-10T09:45:40.216Z,81.2
2022-11-10T09:46:43.533Z,81
2022-11-10T09:48:02.036Z,81
2022-11-10T09:49:05.423Z,81.1
2022-11-10T09:50:09.180Z,81.1
2022-11-10T09:51:12.719Z,81.3
2022-11-10T09:52:15.601Z,81.2
2022-11-10T09:53:18.474Z,81.2
2022-11-10T09:54:21.603Z,81.1
2022-11-10T09:55:24.184Z,81.1
2022-11-10T09:56:27.569Z,81
2022-11-10T09:57:30.086Z,80.9
2022-11-10T09:58:33.687Z,80.8
2022-11-10T09:59:37.501Z,80.9
2022-11-10T10:00:40.860Z,80.7
2022-11-10T10:01:43.592Z,80.8
2022-11-10T10:02:47.108Z,80.9
2022-11-10T10:03:50.097Z,81
2022-11-10T10:04:53.875Z,81.1
2022-11-10T10:05:57.878Z,81.2
2022-11-10T10:07:13.227Z,81.1
2022-11-10T10:08:17.208Z,81.1
2022-11-10T10:09:20.374Z,80.9
2022-11-10T10:10:23.611Z,80.8
2022-11-10T10:11:26.338Z,80.8
2022-11-10T10:12:29.143Z,80.8
2022-11-10T10:13:31.955Z,80.8
2022-11-10T10:14:35.418Z,80.7
2022-11-10T10:15:38.954Z,80.6
2022-11-10T10:16:41.766Z,80.5
2022-11-10T10:17:44.506Z,80.5
2022-11-10T10:18:47.021Z,80.4
2022-11-10T10:19:49.588Z,80.5
2022-11-10T10:20:52.989Z,80.3
2022-11-10T10:21:57.005Z,80
2022-11-10T10:23:00.484Z,79.9
2022-11-10T10:24:22.473Z,79.9
2022-11-10T10:25:25.809Z,79.9
2022-11-10T10:26:28.607Z,79.5
2022-11-10T10:27:31.718Z,79.6
2022-11-10T10:28:34.998Z,79.6
2022-11-10T10:29:39.377Z,79.4
2022-11-10T10:30:42.438Z,79.4
2022-11-10T10:31:45.344Z,79.2
2022-11-10T10:32:48.721Z,79
2022-11-10T10:33:51.519Z,78.9
2022-11-10T10:34:54.866Z,78.9
2022-11-10T10:35:58.595Z,78.7
2022-11-10T10:37:01.725Z,78.8
2022-11-10T10:38:04.463Z,78.8
2022-11-10T10:39:08.511Z,78.9
2022-11-10T10:40:11.115Z,78.7
2022-11-10T10:41:21.024Z,78.7
2022-11-10T10:42:27.319Z,78.8
2022-11-10T10:43:29.656Z,78.7
2022-11-10T10:44:33.034Z,78.6
2022-11-10T10:45:36.027Z,78.4
2022-11-10T10:46:39.272Z,78.2
2022-11-10T10:47:42.618Z,78
2022-11-10T10:49:30.381Z,78
2022-11-10T10:50:34.752Z,78
2022-11-10T10:51:37.567Z,77.9
2022-11-10T10:52:41.230Z,77.8
2022-11-10T10:53:44.616Z,78.1
2022-11-10T10:54:48.715Z,78.2
2022-11-10T10:55:51.243Z,78
2022-11-10T10:56:54.687Z,77.8
2022-11-10T10:57:58.143Z,77.9
2022-11-10T10:59:00.928Z,77.8
2022-11-10T11:00:04.377Z,78
2022-11-10T11:01:08.697Z,77.9
2022-11-10T11:02:12.063Z,77.6
2022-11-10T11:03:14.870Z,77.6
2022-11-10T11:04:17.672Z,77.6
2022-11-10T11:05:20.487Z,77.5
2022-11-10T11:06:23.288Z,77.7
2022-11-10T11:07:26.497Z,77.8
2022-11-10T11:08:29.967Z,77.9
2022-11-10T11:09:33.078Z,77.7
2022-11-10T11:10:37.213Z,77.8
2022-11-10T11:11:40.320Z,77.8
2022-11-10T11:12:43.403Z,78
2022-11-10T11:13:47.366Z,77.9
2022-11-10T11:14:50.090Z,77.8
2022-11-10T11:15:53.178Z,77.6
2022-11-10T11:16:56.027Z,77.5
2022-11-10T11:17:59.353Z,77.3
2022-11-10T11:19:02.469Z,77.3
2022-11-10T11:20:05.262Z,77.2
2022-11-10T11:21:08.796Z,77.1
2022-11-10T11:22:12.550Z,77.1
2022-11-10T11:23:15.782Z,77.1
2022-11-10T11:24:19.328Z,77.1
2022-11-10T11:25:22.409Z,77.2
2022-11-10T11:26:25.227Z,77.2
2022-11-10T11:27:28.607Z,77.3
2022-11-10T11:28:32.373Z,77.2
2022-11-10T11:29:35.922Z,77.2
2022-11-10T11:30:38.758Z,77.3
2022-11-10T11:31:44.765Z,77.6
2022-11-10T11:32:48.307Z,77.6
2022-11-10T11:33:51.363Z,77.5
2022-11-10T11:34:53.802Z,77.4
2022-11-10T11:35:56.312Z,77.3
2022-11-10T11:36:59.458Z,77.6
2022-11-10T11:38:02.427Z,77.5
2022-11-10T11:39:05.191Z,77.2
2022-11-10T11:40:08.666Z,77
2022-11-10T11:41:11.382Z,77
2022-11-10T11:42:15.137Z,76.8
2022-11-10T11:43:18.123Z,76.7
2022-11-10T11:44:21.579Z,76.8
2022-11-10T11:45:24.295Z,76.4
2022-11-10T11:46:27.325Z,76.1
2022-11-10T11:47:30.158Z,76.4
2022-11-10T11:48:33.502Z,76.3
2022-11-10T11:49:36.920Z,76.3
2022-11-10T11:50:40.455Z,76.2
2022-11-10T11:51:43.474Z,76.1
2022-11-10T11:52:46.478Z,76.1
2022-11-10T11:53:50.005Z,76
2022-11-10T11:54:53.495Z,76
2022-11-10T11:55:56.593Z,75.8
2022-11-10T11:57:00.252Z,75.7
2022-11-10T11:58:03.710Z,75.7
2022-11-10T11:59:06.554Z,75.7
2022-11-10T12:00:09.903Z,75.5
2022-11-10T12:01:13.632Z,75.4
2022-11-10T12:02:17.724Z,75.5
2022-11-10T12:03:20.933Z,75.4
2022-11-10T12:04:23.949Z,75.3
2022-11-10T12:05:27.397Z,75.4
2022-11-10T12:06:30.911Z,75.2
2022-11-10T12:07:34.172Z,75.1
2022-11-10T12:08:36.966Z,75
2022-11-10T12:09:39.855Z,74.9
2022-11-10T12:10:44.968Z,75
2022-11-10T12:11:48.340Z,75.1
2022-11-10T12:12:51.564Z,74.6
2022-11-10T12:13:55.101Z,74.5
2022-11-10T12:14:58.185Z,74.2
2022-11-10T12:16:00.913Z,74.1
2022-11-10T12:17:03.712Z,74
2022-11-10T12:18:06.862Z,73.9
2022-11-10T12:19:09.856Z,74
2022-11-10T12:20:13.512Z,74.1
2022-11-10T12:21:17.144Z,73.6
2022-11-10T12:22:20.503Z,73.5
2022-11-10T12:23:23.508Z,73.6
2022-11-10T12:24:26.966Z,73.3
2022-11-10T12:25:30.158Z,73.4
2022-11-10T12:26:33.191Z,73.4
2022-11-10T12:27:36.856Z,72.9
2022-11-10T12:28:40.227Z,73.1
2022-11-10T12:29:43.722Z,73.1
2022-11-10T12:30:47.386Z,73.2
2022-11-10T12:31:50.191Z,73.3
2022-11-10T12:32:53.176Z,73.3
2022-11-10T12:33:56.257Z,73.4
2022-11-10T12:34:59.708Z,73.3
2022-11-10T12:36:02.811Z,73.4
2022-11-10T12:37:06.327Z,73.4
2022-11-10T12:38:09.686Z,73.4
2022-11-10T12:39:12.680Z,73.3
2022-11-10T12:40:16.118Z,73.6
2022-11-10T12:41:19.859Z,73.6
2022-11-10T12:42:22.688Z,73.4
2022-11-10T12:43:26.634Z,73.3
2022-11-10T12:44:29.549Z,73.2
2022-11-10T12:45:32.509Z,73.2
2022-11-10T12:46:35.859Z,73.1
2022-11-10T12:47:38.834Z,72.9
2022-11-10T12:48:42.014Z,72.8
2022-11-10T12:49:45.082Z,72.9
2022-11-10T12:50:47.907Z,73
2022-11-10T12:51:51.004Z,72.6
2022-11-10T12:52:54.457Z,72.6
2022-11-10T12:53:57.276Z,72.6
2022-11-10T12:55:00.348Z,72.8
2022-11-10T12:56:03.508Z,73
2022-11-10T12:57:06.330Z,72.8
2022-11-10T12:58:09.206Z,72.8
2022-11-10T12:59:12.850Z,72.7
2022-11-10T13:00:29.163Z,72.8
2022-11-10T13:01:33.222Z,72.9
2022-11-10T13:02:37.176Z,73.2
2022-11-10T13:03:40.263Z,73.3
2022-11-10T13:04:43.057Z,73.4
2022-11-10T13:05:45.868Z,73.5
2022-11-10T13:06:49.247Z,73.5
2022-11-10T13:07:53.125Z,73.3
2022-11-10T13:08:56.081Z,72.9
2022-11-10T13:09:59.232Z,72.9
2022-11-10T13:11:01.742Z,73.2
2022-11-10T13:12:04.619Z,73.1
2022-11-10T13:13:07.684Z,73.1
2022-11-10T13:14:10.643Z,73.6
2022-11-10T13:15:13.541Z,73.3
2022-11-10T13:16:16.720Z,73.1
2022-11-10T13:17:20.281Z,73.1
2022-11-10T13:18:24.925Z,73
2022-11-10T13:19:27.750Z,72.8
2022-11-10T13:20:33.381Z,72.9
2022-11-10T13:21:36.308Z,72.9
2022-11-10T13:22:39.108Z,73
2022-11-10T13:23:42.124Z,73
2022-11-10T13:24:45.667Z,73.1
2022-11-10T13:25:49.553Z,73.2
2022-11-10T13:26:52.934Z,73.2
2022-11-10T13:27:56.613Z,73.3
2022-11-10T13:29:00.264Z,73.3
2022-11-10T13:30:03.224Z,73.2
2022-11-10T13:31:06.672Z,73.5
2022-11-10T13:32:09.589Z,73.5
2022-11-10T13:33:13.377Z,73.7
2022-11-10T13:34:16.452Z,73.8
2022-11-10T13:35:19.913Z,73.8
2022-11-10T13:36:22.989Z,74
2022-11-10T13:37:25.434Z,74
2022-11-10T13:38:28.520Z,74.3
2022-11-10T13:39:31.937Z,74.4
2022-11-10T13:40:35.379Z,74.4
2022-11-10T13:41:38.117Z,74.5
2022-11-10T13:42:48.092Z,74.4
2022-11-10T13:43:50.610Z,74.3
2022-11-10T13:44:54.622Z,74.4
2022-11-10T13:45:57.995Z,74.4
2022-11-10T13:47:01.164Z,74.4
2022-11-10T13:48:04.016Z,74.6
2022-11-10T13:49:15.964Z,74.6
2022-11-10T13:50:19.032Z,74.6
2022-11-10T13:51:22.468Z,74.7
2022-11-10T13:52:25.814Z,74.6
2022-11-10T13:53:28.962Z,74.7
2022-11-10T13:54:32.415Z,74.6
2022-11-10T13:55:35.864Z,74.7
2022-11-10T13:56:38.843Z,74.6
2022-11-10T13:57:41.564Z,74.5
2022-11-10T13:58:44.096Z,74.6
2022-11-10T13:59:46.290Z,74.7
2022-11-10T14:00:49.935Z,74.6
2022-11-10T14:01:52.769Z,74.7
2022-11-10T14:02:56.889Z,74.6
2022-11-10T14:04:00.695Z,74.6
2022-11-10T14:05:04.679Z,74.7
2022-11-10T14:06:07.201Z,74.7
2022-11-10T14:07:10.454Z,74.7
2022-11-10T14:08:14.045Z,74.9
2022-11-10T14:09:17.230Z,74.9
2022-11-10T14:10:19.183Z,74.7
2022-11-10T14:11:22.556Z,74.7